Sheldon, Wisconsin
Current Conditions -  °F | °C
As of 5:15 AM on Wednesday 26 Nov 2014 (Local Time) from KRCX Reporting Station
Overcast Overcast  
Wind Chill: 22°   Ceiling: 6000
Heat Index: 22°   Visibility: 10mi
Dew Point: 18°   Wind: 0mph
Humidity: 85%   Direction: NA
Pressure: 30.1"   Gusts: NA
Location:  45.31°N, 90.96°W
Report Text: KRCX 261115Z AUTO 00000KT 10SM BKN060 OVC070 M06/M08 A3010 RMK AO2 T10581079
Loading
Personal Weather Stations






























Interactive Weather Map New forecast layout! Learn more

10-Day Weather Forecast

Advertisements
Track Severe Weather on mobile